sensor_id;sensor_type;location;lat;lon;timestamp;temperature;humidity
38938;DHT22;24727;51.974;20.868;2022-09-03T00:00:19;8.80;1.00
38938;DHT22;24727;51.974;20.868;2022-09-03T00:03:25;8.90;1.00
38938;DHT22;24727;51.974;20.868;2022-09-03T00:06:20;8.80;1.00
38938;DHT22;24727;51.974;20.868;2022-09-03T00:09:00;8.70;1.00
38938;DHT22;24727;51.974;20.868;2022-09-03T00:11:34;8.80;1.00
38938;DHT22;24727;51.974;20.868;2022-09-03T00:14:08;8.80;1.00
38938;DHT22;24727;51.974;20.868;2022-09-03T00:16:50;8.90;1.00
38938;DHT22;24727;51.974;20.868;2022-09-03T00:19:21;8.70;1.00
38938;DHT22;24727;51.974;20.868;2022-09-03T00:21:58;8.50;1.00
38938;DHT22;24727;51.974;20.868;2022-09-03T00:24:28;8.40;1.00
38938;DHT22;24727;51.974;20.868;2022-09-03T00:27:00;8.10;1.00
38938;DHT22;24727;51.974;20.868;2022-09-03T00:30:14;8.10;1.00
38938;DHT22;24727;51.974;20.868;2022-09-03T00:32:36;8.10;1.00
38938;DHT22;24727;51.974;20.868;2022-09-03T00:35:10;7.90;1.00
38938;DHT22;24727;51.974;20.868;2022-09-03T00:37:40;8.00;1.00
38938;DHT22;24727;51.974;20.868;2022-09-03T00:40:13;8.00;1.00
38938;DHT22;24727;51.974;20.868;2022-09-03T00:48:17;7.70;1.00
38938;DHT22;24727;51.974;20.868;2022-09-03T00:53:40;7.60;1.00
38938;DHT22;24727;51.974;20.868;2022-09-03T01:12:57;7.60;1.00
38938;DHT22;24727;51.974;20.868;2022-09-03T01:15:39;7.70;1.00
38938;DHT22;24727;51.974;20.868;2022-09-03T01:19:23;7.70;1.00
38938;DHT22;24727;51.974;20.868;2022-09-03T01:24:07;7.60;1.00
38938;DHT22;24727;51.974;20.868;2022-09-03T01:37:31;7.70;1.00
38938;DHT22;24727;51.974;20.868;2022-09-03T01:45:56;7.60;1.00
38938;DHT22;24727;51.974;20.868;2022-09-03T01:48:44;7.60;1.00
38938;DHT22;24727;51.974;20.868;2022-09-03T01:51:23;7.60;1.00
38938;DHT22;24727;51.974;20.868;2022-09-03T02:00:14;7.60;1.00
38938;DHT22;24727;51.974;20.868;2022-09-03T02:02:43;7.60;1.00
38938;DHT22;24727;51.974;20.868;2022-09-03T02:07:57;7.70;1.00
38938;DHT22;24727;51.974;20.868;2022-09-03T02:10:38;7.60;1.00
38938;DHT22;24727;51.974;20.868;2022-09-03T02:13:10;7.60;1.00
38938;DHT22;24727;51.974;20.868;2022-09-03T02:15:42;7.60;1.00
38938;DHT22;24727;51.974;20.868;2022-09-03T02:18:15;7.50;1.00
38938;DHT22;24727;51.974;20.868;2022-09-03T02:20:42;7.50;1.00
38938;DHT22;24727;51.974;20.868;2022-09-03T02:23:10;7.40;1.00
38938;DHT22;24727;51.974;20.868;2022-09-03T02:25:40;7.30;1.00
38938;DHT22;24727;51.974;20.868;2022-09-03T02:28:08;7.20;1.00
38938;DHT22;24727;51.974;20.868;2022-09-03T02:30:35;7.10;1.00
38938;DHT22;24727;51.974;20.868;2022-09-03T02:33:01;7.00;1.00
38938;DHT22;24727;51.974;20.868;2022-09-03T02:35:27;7.00;1.00
38938;DHT22;24727;51.974;20.868;2022-09-03T02:37:53;7.00;1.00
38938;DHT22;24727;51.974;20.868;2022-09-03T02:40:19;7.10;1.00
38938;DHT22;24727;51.974;20.868;2022-09-03T02:42:46;7.10;1.00
38938;DHT22;24727;51.974;20.868;2022-09-03T02:45:32;7.00;1.00
38938;DHT22;24727;51.974;20.868;2022-09-03T02:47:59;7.00;1.00
38938;DHT22;24727;51.974;20.868;2022-09-03T02:50:25;7.00;1.00
38938;DHT22;24727;51.974;20.868;2022-09-03T02:52:52;7.00;1.00
38938;DHT22;24727;51.974;20.868;2022-09-03T02:55:19;6.90;1.00
38938;DHT22;24727;51.974;20.868;2022-09-03T02:57:45;6.80;1.00
38938;DHT22;24727;51.974;20.868;2022-09-03T03:00:17;6.80;1.00
38938;DHT22;24727;51.974;20.868;2022-09-03T03:02:43;6.80;1.00
38938;DHT22;24727;51.974;20.868;2022-09-03T03:05:17;6.60;1.00
38938;DHT22;24727;51.974;20.868;2022-09-03T03:07:46;6.60;1.00
38938;DHT22;24727;51.974;20.868;2022-09-03T03:10:12;6.70;1.00
38938;DHT22;24727;51.974;20.868;2022-09-03T03:12:40;6.60;1.00
38938;DHT22;24727;51.974;20.868;2022-09-03T03:15:07;6.60;1.00
38938;DHT22;24727;51.974;20.868;2022-09-03T03:17:34;6.60;1.00
38938;DHT22;24727;51.974;20.868;2022-09-03T03:20:00;6.50;1.00
38938;DHT22;24727;51.974;20.868;2022-09-03T03:22:25;6.40;1.00
38938;DHT22;24727;51.974;20.868;2022-09-03T03:24:51;6.40;1.00
38938;DHT22;24727;51.974;20.868;2022-09-03T03:27:20;6.50;1.00
38938;DHT22;24727;51.974;20.868;2022-09-03T03:29:47;6.50;1.00
38938;DHT22;24727;51.974;20.868;2022-09-03T03:32:15;6.40;1.00
38938;DHT22;24727;51.974;20.868;2022-09-03T03:34:41;6.30;1.00
38938;DHT22;24727;51.974;20.868;2022-09-03T03:37:07;6.30;1.00
38938;DHT22;24727;51.974;20.868;2022-09-03T03:39:40;6.30;1.00
38938;DHT22;24727;51.974;20.868;2022-09-03T03:42:06;6.30;1.00
38938;DHT22;24727;51.974;20.868;2022-09-03T03:44:34;6.30;1.00
38938;DHT22;24727;51.974;20.868;2022-09-03T03:47:01;6.30;1.00
38938;DHT22;24727;51.974;20.868;2022-09-03T03:49:27;6.30;1.00
38938;DHT22;24727;51.974;20.868;2022-09-03T03:51:53;6.30;1.00
38938;DHT22;24727;51.974;20.868;2022-09-03T03:54:19;6.30;1.00
38938;DHT22;24727;51.974;20.868;2022-09-03T03:56:52;6.30;1.00
38938;DHT22;24727;51.974;20.868;2022-09-03T03:59:18;6.40;1.00
38938;DHT22;24727;51.974;20.868;2022-09-03T04:01:44;6.40;1.00
38938;DHT22;24727;51.974;20.868;2022-09-03T04:04:11;6.40;1.00
38938;DHT22;24727;51.974;20.868;2022-09-03T04:06:36;6.30;1.00
38938;DHT22;24727;51.974;20.868;2022-09-03T04:09:02;6.30;1.00
38938;DHT22;24727;51.974;20.868;2022-09-03T04:11:28;6.40;1.00
38938;DHT22;24727;51.974;20.868;2022-09-03T04:13:54;6.40;1.00
38938;DHT22;24727;51.974;20.868;2022-09-03T04:16:27;6.50;1.00
38938;DHT22;24727;51.974;20.868;2022-09-03T04:18:55;6.50;1.00
38938;DHT22;24727;51.974;20.868;2022-09-03T04:21:25;6.40;1.00
38938;DHT22;24727;51.974;20.868;2022-09-03T04:23:53;6.30;1.00
38938;DHT22;24727;51.974;20.868;2022-09-03T04:26:21;6.40;1.00
38938;DHT22;24727;51.974;20.868;2022-09-03T04:28:48;6.40;1.00
38938;DHT22;24727;51.974;20.868;2022-09-03T04:31:16;6.40;1.00
38938;DHT22;24727;51.974;20.868;2022-09-03T04:33:42;6.40;1.00
38938;DHT22;24727;51.974;20.868;2022-09-03T04:36:17;6.50;1.00
38938;DHT22;24727;51.974;20.868;2022-09-03T04:38:46;6.50;1.00
38938;DHT22;24727;51.974;20.868;2022-09-03T04:41:27;6.60;1.00
38938;DHT22;24727;51.974;20.868;2022-09-03T04:43:55;6.90;1.00
38938;DHT22;24727;51.974;20.868;2022-09-03T04:46:24;7.00;1.00
38938;DHT22;24727;51.974;20.868;2022-09-03T04:48:52;7.20;1.00
38938;DHT22;24727;51.974;20.868;2022-09-03T04:51:24;7.50;1.00
38938;DHT22;24727;51.974;20.868;2022-09-03T04:53:53;7.70;1.00
38938;DHT22;24727;51.974;20.868;2022-09-03T04:56:27;7.90;1.00
38938;DHT22;24727;51.974;20.868;2022-09-03T04:58:55;7.90;1.00
38938;DHT22;24727;51.974;20.868;2022-09-03T05:01:23;8.00;1.00
38938;DHT22;24727;51.974;20.868;2022-09-03T05:03:49;8.30;1.00
38938;DHT22;24727;51.974;20.868;2022-09-03T05:06:18;8.40;1.00
38938;DHT22;24727;51.974;20.868;2022-09-03T05:08:48;8.40;1.00
38938;DHT22;24727;51.974;20.868;2022-09-03T05:11:15;8.40;1.00
38938;DHT22;24727;51.974;20.868;2022-09-03T05:13:41;8.60;1.00
38938;DHT22;24727;51.974;20.868;2022-09-03T05:16:09;8.70;1.00
38938;DHT22;24727;51.974;20.868;2022-09-03T05:18:36;9.00;1.00
38938;DHT22;24727;51.974;20.868;2022-09-03T05:21:10;9.20;1.00
38938;DHT22;24727;51.974;20.868;2022-09-03T05:23:38;9.40;1.00
38938;DHT22;24727;51.974;20.868;2022-09-03T05:26:06;9.70;1.00
38938;DHT22;24727;51.974;20.868;2022-09-03T05:28:35;9.90;1.00
38938;DHT22;24727;51.974;20.868;2022-09-03T05:31:18;10.10;1.00
38938;DHT22;24727;51.974;20.868;2022-09-03T05:33:46;10.30;1.00
38938;DHT22;24727;51.974;20.868;2022-09-03T05:36:16;10.20;1.00
38938;DHT22;24727;51.974;20.868;2022-09-03T05:38:43;10.50;1.00
38938;DHT22;24727;51.974;20.868;2022-09-03T05:41:11;10.60;1.00
38938;DHT22;24727;51.974;20.868;2022-09-03T05:43:38;10.70;1.00
38938;DHT22;24727;51.974;20.868;2022-09-03T05:46:07;10.80;1.00
38938;DHT22;24727;51.974;20.868;2022-09-03T05:48:35;11.00;1.00
38938;DHT22;24727;51.974;20.868;2022-09-03T05:51:04;11.20;1.00
38938;DHT22;24727;51.974;20.868;2022-09-03T05:53:34;11.20;1.00
38938;DHT22;24727;51.974;20.868;2022-09-03T05:56:03;11.30;1.00
38938;DHT22;24727;51.974;20.868;2022-09-03T05:58:31;11.50;1.00
38938;DHT22;24727;51.974;20.868;2022-09-03T06:00:57;11.70;1.00
38938;DHT22;24727;51.974;20.868;2022-09-03T06:03:24;12.00;1.00
38938;DHT22;24727;51.974;20.868;2022-09-03T06:05:53;12.20;1.00
38938;DHT22;24727;51.974;20.868;2022-09-03T06:08:22;12.40;1.00
38938;DHT22;24727;51.974;20.868;2022-09-03T06:10:48;12.70;1.00
38938;DHT22;24727;51.974;20.868;2022-09-03T06:13:13;12.80;1.00
38938;DHT22;24727;51.974;20.868;2022-09-03T06:15:40;13.10;1.00
38938;DHT22;24727;51.974;20.868;2022-09-03T06:18:06;13.20;1.00
38938;DHT22;24727;51.974;20.868;2022-09-03T06:20:31;13.50;1.00
38938;DHT22;24727;51.974;20.868;2022-09-03T06:22:59;13.70;1.00
38938;DHT22;24727;51.974;20.868;2022-09-03T06:25:25;13.90;1.00
38938;DHT22;24727;51.974;20.868;2022-09-03T06:27:52;14.00;1.00
38938;DHT22;24727;51.974;20.868;2022-09-03T06:30:19;14.20;1.00
38938;DHT22;24727;51.974;20.868;2022-09-03T06:32:46;14.30;1.00
38938;DHT22;24727;51.974;20.868;2022-09-03T06:35:14;14.50;1.00
38938;DHT22;24727;51.974;20.868;2022-09-03T06:37:41;14.60;1.00
38938;DHT22;24727;51.974;20.868;2022-09-03T06:40:08;14.90;1.00
38938;DHT22;24727;51.974;20.868;2022-09-03T06:42:39;14.90;1.00
38938;DHT22;24727;51.974;20.868;2022-09-03T06:45:08;15.20;1.00
38938;DHT22;24727;51.974;20.868;2022-09-03T06:47:35;15.40;1.00
38938;DHT22;24727;51.974;20.868;2022-09-03T06:50:01;15.80;1.00
38938;DHT22;24727;51.974;20.868;2022-09-03T06:52:28;16.10;1.00
38938;DHT22;24727;51.974;20.868;2022-09-03T06:54:54;16.20;1.00
38938;DHT22;24727;51.974;20.868;2022-09-03T06:57:20;16.20;1.00
38938;DHT22;24727;51.974;20.868;2022-09-03T06:59:52;16.40;1.00
38938;DHT22;24727;51.974;20.868;2022-09-03T07:02:20;16.80;1.00
38938;DHT22;24727;51.974;20.868;2022-09-03T07:04:47;17.30;1.00
38938;DHT22;24727;51.974;20.868;2022-09-03T07:07:16;17.60;1.00
38938;DHT22;24727;51.974;20.868;2022-09-03T07:09:49;17.70;1.00
38938;DHT22;24727;51.974;20.868;2022-09-03T07:12:16;17.80;1.00
38938;DHT22;24727;51.974;20.868;2022-09-03T07:14:46;17.90;1.00
38938;DHT22;24727;51.974;20.868;2022-09-03T07:17:12;18.20;1.00
38938;DHT22;24727;51.974;20.868;2022-09-03T07:19:39;18.50;1.00
38938;DHT22;24727;51.974;20.868;2022-09-03T07:22:05;18.80;1.00
38938;DHT22;24727;51.974;20.868;2022-09-03T07:24:32;19.20;1.00
38938;DHT22;24727;51.974;20.868;2022-09-03T07:26:59;19.50;1.00
38938;DHT22;24727;51.974;20.868;2022-09-03T07:29:27;19.60;1.00
38938;DHT22;24727;51.974;20.868;2022-09-03T07:31:53;19.70;1.00
38938;DHT22;24727;51.974;20.868;2022-09-03T07:34:20;19.70;1.00
38938;DHT22;24727;51.974;20.868;2022-09-03T07:36:48;19.80;1.00
38938;DHT22;24727;51.974;20.868;2022-09-03T07:39:16;20.00;1.00
38938;DHT22;24727;51.974;20.868;2022-09-03T07:41:43;20.10;1.00
38938;DHT22;24727;51.974;20.868;2022-09-03T07:44:16;20.00;1.00
38938;DHT22;24727;51.974;20.868;2022-09-03T07:46:46;19.80;1.00
38938;DHT22;24727;51.974;20.868;2022-09-03T07:49:14;19.90;1.00
38938;DHT22;24727;51.974;20.868;2022-09-03T07:51:40;20.00;1.00
38938;DHT22;24727;51.974;20.868;2022-09-03T07:54:08;20.40;1.00
38938;DHT22;24727;51.974;20.868;2022-09-03T07:56:42;20.90;1.00
38938;DHT22;24727;51.974;20.868;2022-09-03T07:59:08;21.10;1.00
38938;DHT22;24727;51.974;20.868;2022-09-03T08:01:36;21.30;1.00
38938;DHT22;24727;51.974;20.868;2022-09-03T08:04:03;21.20;1.00
38938;DHT22;24727;51.974;20.868;2022-09-03T08:06:32;21.20;1.00
38938;DHT22;24727;51.974;20.868;2022-09-03T08:09:04;21.40;1.00
38938;DHT22;24727;51.974;20.868;2022-09-03T08:11:39;21.50;1.00
38938;DHT22;24727;51.974;20.868;2022-09-03T08:14:07;21.80;1.00
38938;DHT22;24727;51.974;20.868;2022-09-03T08:16:42;22.00;1.00
38938;DHT22;24727;51.974;20.868;2022-09-03T08:19:09;22.40;1.00
38938;DHT22;24727;51.974;20.868;2022-09-03T08:21:37;22.20;1.00
38938;DHT22;24727;51.974;20.868;2022-09-03T08:24:04;22.10;1.00
38938;DHT22;24727;51.974;20.868;2022-09-03T08:26:32;22.40;1.00
38938;DHT22;24727;51.974;20.868;2022-09-03T08:28:59;22.10;1.00
38938;DHT22;24727;51.974;20.868;2022-09-03T08:31:26;21.90;1.00
38938;DHT22;24727;51.974;20.868;2022-09-03T08:33:54;22.30;1.00
38938;DHT22;24727;51.974;20.868;2022-09-03T08:36:26;22.30;1.00
38938;DHT22;24727;51.974;20.868;2022-09-03T08:38:57;22.90;1.00
38938;DHT22;24727;51.974;20.868;2022-09-03T08:52:52;21.60;1.00
38938;DHT22;24727;51.974;20.868;2022-09-03T08:55:36;21.80;1.00
38938;DHT22;24727;51.974;20.868;2022-09-03T08:58:22;22.20;1.00
38938;DHT22;24727;51.974;20.868;2022-09-03T09:06:09;23.20;1.00
38938;DHT22;24727;51.974;20.868;2022-09-03T09:08:41;22.80;1.00
38938;DHT22;24727;51.974;20.868;2022-09-03T09:14:18;22.90;1.00
38938;DHT22;24727;51.974;20.868;2022-09-03T09:17:21;22.80;1.00
38938;DHT22;24727;51.974;20.868;2022-09-03T09:23:05;22.30;1.00
38938;DHT22;24727;51.974;20.868;2022-09-03T09:25:33;22.10;1.00
38938;DHT22;24727;51.974;20.868;2022-09-03T09:28:15;22.20;1.00
38938;DHT22;24727;51.974;20.868;2022-09-03T09:30:47;22.50;1.00
38938;DHT22;24727;51.974;20.868;2022-09-03T09:33:14;22.40;1.00
38938;DHT22;24727;51.974;20.868;2022-09-03T09:35:41;22.50;1.00
38938;DHT22;24727;51.974;20.868;2022-09-03T09:38:09;22.60;1.00
38938;DHT22;24727;51.974;20.868;2022-09-03T09:40:38;23.40;1.00
38938;DHT22;24727;51.974;20.868;2022-09-03T09:43:17;23.70;1.00
38938;DHT22;24727;51.974;20.868;2022-09-03T09:45:48;24.00;1.00
38938;DHT22;24727;51.974;20.868;2022-09-03T09:48:22;23.90;1.00
38938;DHT22;24727;51.974;20.868;2022-09-03T09:51:08;23.60;1.00
38938;DHT22;24727;51.974;20.868;2022-09-03T09:53:40;23.90;1.00
38938;DHT22;24727;51.974;20.868;2022-09-03T09:56:07;24.10;1.00
38938;DHT22;24727;51.974;20.868;2022-09-03T09:58:33;24.10;1.00
38938;DHT22;24727;51.974;20.868;2022-09-03T10:01:22;23.30;1.00
38938;DHT22;24727;51.974;20.868;2022-09-03T10:03:54;22.80;1.00
38938;DHT22;24727;51.974;20.868;2022-09-03T10:06:28;23.40;1.00
38938;DHT22;24727;51.974;20.868;2022-09-03T10:09:16;23.30;1.00
38938;DHT22;24727;51.974;20.868;2022-09-03T10:11:48;23.20;1.00
38938;DHT22;24727;51.974;20.868;2022-09-03T10:14:37;23.10;1.00
38938;DHT22;24727;51.974;20.868;2022-09-03T10:28:27;23.40;1.00
38938;DHT22;24727;51.974;20.868;2022-09-03T10:31:06;23.50;1.00
38938;DHT22;24727;51.974;20.868;2022-09-03T10:33:56;23.70;1.00
38938;DHT22;24727;51.974;20.868;2022-09-03T10:36:35;24.10;1.00
38938;DHT22;24727;51.974;20.868;2022-09-03T10:42:01;24.50;1.00
38938;DHT22;24727;51.974;20.868;2022-09-03T10:47:40;23.60;1.00
38938;DHT22;24727;51.974;20.868;2022-09-03T10:50:45;23.60;1.00
38938;DHT22;24727;51.974;20.868;2022-09-03T10:56:24;23.30;1.00
38938;DHT22;24727;51.974;20.868;2022-09-03T11:01:41;23.20;1.00
38938;DHT22;24727;51.974;20.868;2022-09-03T11:07:03;24.10;1.00
38938;DHT22;24727;51.974;20.868;2022-09-03T11:09:56;23.70;1.00
38938;DHT22;24727;51.974;20.868;2022-09-03T11:15:50;24.40;1.00
38938;DHT22;24727;51.974;20.868;2022-09-03T11:20:53;24.60;1.00
38938;DHT22;24727;51.974;20.868;2022-09-03T11:23:21;23.90;1.00
38938;DHT22;24727;51.974;20.868;2022-09-03T11:25:52;23.60;1.00
38938;DHT22;24727;51.974;20.868;2022-09-03T11:28:57;24.20;1.00
38938;DHT22;24727;51.974;20.868;2022-09-03T11:37:04;24.30;1.00
38938;DHT22;24727;51.974;20.868;2022-09-03T11:42:31;24.50;1.00
38938;DHT22;24727;51.974;20.868;2022-09-03T11:47:44;23.90;1.00
38938;DHT22;24727;51.974;20.868;2022-09-03T11:50:24;23.70;1.00
38938;DHT22;24727;51.974;20.868;2022-09-03T11:55:58;23.60;1.00
38938;DHT22;24727;51.974;20.868;2022-09-03T11:58:31;24.10;1.00
38938;DHT22;24727;51.974;20.868;2022-09-03T12:01:01;24.30;1.00
38938;DHT22;24727;51.974;20.868;2022-09-03T12:03:47;23.80;1.00
38938;DHT22;24727;51.974;20.868;2022-09-03T12:06:37;23.30;1.00
38938;DHT22;24727;51.974;20.868;2022-09-03T12:20:15;23.50;1.00
38938;DHT22;24727;51.974;20.868;2022-09-03T12:22:47;24.20;1.00
38938;DHT22;24727;51.974;20.868;2022-09-03T12:25:14;24.20;1.00
38938;DHT22;24727;51.974;20.868;2022-09-03T12:27:43;24.30;1.00
38938;DHT22;24727;51.974;20.868;2022-09-03T12:30:22;24.40;1.00
38938;DHT22;24727;51.974;20.868;2022-09-03T12:32:48;24.70;1.00
38938;DHT22;24727;51.974;20.868;2022-09-03T12:35:18;24.40;1.00
38938;DHT22;24727;51.974;20.868;2022-09-03T12:37:46;24.20;1.00
38938;DHT22;24727;51.974;20.868;2022-09-03T12:40:26;24.10;1.00
38938;DHT22;24727;51.974;20.868;2022-09-03T12:42:53;24.00;1.00
38938;DHT22;24727;51.974;20.868;2022-09-03T12:45:26;24.40;1.00
38938;DHT22;24727;51.974;20.868;2022-09-03T12:47:52;24.20;1.00
38938;DHT22;24727;51.974;20.868;2022-09-03T12:50:22;23.20;1.00
38938;DHT22;24727;51.974;20.868;2022-09-03T12:52:55;22.90;1.00
38938;DHT22;24727;51.974;20.868;2022-09-03T12:58:38;23.20;1.00
38938;DHT22;24727;51.974;20.868;2022-09-03T13:01:12;23.30;1.00
38938;DHT22;24727;51.974;20.868;2022-09-03T13:06:26;23.60;1.00
38938;DHT22;24727;51.974;20.868;2022-09-03T13:09:01;23.70;1.00
38938;DHT22;24727;51.974;20.868;2022-09-03T13:11:31;23.40;1.00
38938;DHT22;24727;51.974;20.868;2022-09-03T13:14:02;23.70;1.00
38938;DHT22;24727;51.974;20.868;2022-09-03T13:19:44;23.50;1.00
38938;DHT22;24727;51.974;20.868;2022-09-03T13:22:29;23.00;1.00
38938;DHT22;24727;51.974;20.868;2022-09-03T13:25:04;23.00;1.00
38938;DHT22;24727;51.974;20.868;2022-09-03T13:33:37;23.00;1.00
38938;DHT22;24727;51.974;20.868;2022-09-03T13:36:02;22.90;1.00
38938;DHT22;24727;51.974;20.868;2022-09-03T13:38:45;23.00;1.00
38938;DHT22;24727;51.974;20.868;2022-09-03T13:47:07;23.20;1.00
38938;DHT22;24727;51.974;20.868;2022-09-03T13:49:52;23.30;1.00
38938;DHT22;24727;51.974;20.868;2022-09-03T13:53:13;22.70;1.00
38938;DHT22;24727;51.974;20.868;2022-09-03T13:55:54;22.00;1.00
38938;DHT22;24727;51.974;20.868;2022-09-03T13:58:40;21.80;1.00
38938;DHT22;24727;51.974;20.868;2022-09-03T14:01:18;21.70;1.00
38938;DHT22;24727;51.974;20.868;2022-09-03T14:03:56;22.10;1.00
38938;DHT22;24727;51.974;20.868;2022-09-03T14:06:42;22.40;1.00
38938;DHT22;24727;51.974;20.868;2022-09-03T14:09:23;22.80;1.00
38938;DHT22;24727;51.974;20.868;2022-09-03T14:12:24;22.30;1.00
38938;DHT22;24727;51.974;20.868;2022-09-03T14:15:05;21.90;1.00
38938;DHT22;24727;51.974;20.868;2022-09-03T14:17:51;21.80;1.00
38938;DHT22;24727;51.974;20.868;2022-09-03T14:20:29;21.70;1.00
38938;DHT22;24727;51.974;20.868;2022-09-03T14:26:36;21.90;1.00
38938;DHT22;24727;51.974;20.868;2022-09-03T14:29:31;21.80;1.00
38938;DHT22;24727;51.974;20.868;2022-09-03T14:37:44;21.30;1.00
38938;DHT22;24727;51.974;20.868;2022-09-03T14:40:17;21.40;1.00
38938;DHT22;24727;51.974;20.868;2022-09-03T14:51:30;21.00;1.00
38938;DHT22;24727;51.974;20.868;2022-09-03T14:54:14;20.80;1.00
38938;DHT22;24727;51.974;20.868;2022-09-03T15:07:44;21.30;1.00
38938;DHT22;24727;51.974;20.868;2022-09-03T15:10:49;21.20;1.00
38938;DHT22;24727;51.974;20.868;2022-09-03T15:16:26;20.90;1.00
38938;DHT22;24727;51.974;20.868;2022-09-03T15:22:18;20.60;1.00
38938;DHT22;24727;51.974;20.868;2022-09-03T15:30:15;20.70;1.00
38938;DHT22;24727;51.974;20.868;2022-09-03T15:40:40;20.40;1.00
38938;DHT22;24727;51.974;20.868;2022-09-03T15:43:17;20.40;1.00
38938;DHT22;24727;51.974;20.868;2022-09-03T15:52:46;20.20;1.00
38938;DHT22;24727;51.974;20.868;2022-09-03T15:57:46;20.10;1.00
38938;DHT22;24727;51.974;20.868;2022-09-03T16:00:18;20.00;1.00
38938;DHT22;24727;51.974;20.868;2022-09-03T16:02:50;20.00;1.00
38938;DHT22;24727;51.974;20.868;2022-09-03T16:05:40;20.10;1.00
38938;DHT22;24727;51.974;20.868;2022-09-03T16:08:37;20.20;1.00
38938;DHT22;24727;51.974;20.868;2022-09-03T16:11:20;20.10;1.00
38938;DHT22;24727;51.974;20.868;2022-09-03T16:14:14;20.10;1.00
38938;DHT22;24727;51.974;20.868;2022-09-03T16:17:31;20.00;1.00
38938;DHT22;24727;51.974;20.868;2022-09-03T16:19:44;20.00;1.00
38938;DHT22;24727;51.974;20.868;2022-09-03T16:22:26;20.00;1.00
38938;DHT22;24727;51.974;20.868;2022-09-03T16:25:01;19.90;1.00
38938;DHT22;24727;51.974;20.868;2022-09-03T16:33:23;19.80;1.00
38938;DHT22;24727;51.974;20.868;2022-09-03T16:36:01;19.70;1.00
38938;DHT22;24727;51.974;20.868;2022-09-03T16:39:02;19.70;1.00
38938;DHT22;24727;51.974;20.868;2022-09-03T16:47:28;19.80;1.00
38938;DHT22;24727;51.974;20.868;2022-09-03T16:50:04;19.70;1.00
38938;DHT22;24727;51.974;20.868;2022-09-03T16:53:02;19.70;1.00
38938;DHT22;24727;51.974;20.868;2022-09-03T16:58:46;19.50;1.00
38938;DHT22;24727;51.974;20.868;2022-09-03T17:13:29;19.00;1.00
38938;DHT22;24727;51.974;20.868;2022-09-03T17:15:40;18.90;1.00
38938;DHT22;24727;51.974;20.868;2022-09-03T17:21:30;18.60;1.00
38938;DHT22;24727;51.974;20.868;2022-09-03T17:29:39;18.30;1.00
38938;DHT22;24727;51.974;20.868;2022-09-03T17:40:44;17.70;1.00
38938;DHT22;24727;51.974;20.868;2022-09-03T17:48:52;17.40;1.00
38938;DHT22;24727;51.974;20.868;2022-09-03T17:57:15;17.20;1.00
38938;DHT22;24727;51.974;20.868;2022-09-03T17:59:54;17.00;1.00
38938;DHT22;24727;51.974;20.868;2022-09-03T18:05:26;16.90;1.00
38938;DHT22;24727;51.974;20.868;2022-09-03T18:13:42;16.50;1.00
38938;DHT22;24727;51.974;20.868;2022-09-03T18:19:41;16.30;1.00
38938;DHT22;24727;51.974;20.868;2022-09-03T18:22:32;16.30;1.00
38938;DHT22;24727;51.974;20.868;2022-09-03T18:25:22;16.20;1.00
38938;DHT22;24727;51.974;20.868;2022-09-03T18:28:11;16.10;1.00
38938;DHT22;24727;51.974;20.868;2022-09-03T18:30:59;16.00;1.00
38938;DHT22;24727;51.974;20.868;2022-09-03T18:33:45;15.90;1.00
38938;DHT22;24727;51.974;20.868;2022-09-03T18:36:32;15.80;1.00
38938;DHT22;24727;51.974;20.868;2022-09-03T18:39:25;15.60;1.00
38938;DHT22;24727;51.974;20.868;2022-09-03T18:42:33;15.50;1.00
38938;DHT22;24727;51.974;20.868;2022-09-03T18:45:33;15.40;1.00
38938;DHT22;24727;51.974;20.868;2022-09-03T18:51:30;15.20;1.00
38938;DHT22;24727;51.974;20.868;2022-09-03T18:57:26;15.10;1.00
38938;DHT22;24727;51.974;20.868;2022-09-03T19:00:16;15.00;1.00
38938;DHT22;24727;51.974;20.868;2022-09-03T19:09:47;14.70;1.00
38938;DHT22;24727;51.974;20.868;2022-09-03T19:16:10;14.60;1.00
38938;DHT22;24727;51.974;20.868;2022-09-03T19:19:37;14.40;1.00
38938;DHT22;24727;51.974;20.868;2022-09-03T19:22:33;14.30;1.00
38938;DHT22;24727;51.974;20.868;2022-09-03T19:25:18;14.20;1.00
38938;DHT22;24727;51.974;20.868;2022-09-03T19:28:19;14.20;1.00
38938;DHT22;24727;51.974;20.868;2022-09-03T19:34:44;14.00;1.00
38938;DHT22;24727;51.974;20.868;2022-09-03T19:38:03;13.90;1.00
38938;DHT22;24727;51.974;20.868;2022-09-03T19:46:52;13.60;1.00
38938;DHT22;24727;51.974;20.868;2022-09-03T19:50:02;13.50;1.00
38938;DHT22;24727;51.974;20.868;2022-09-03T19:53:02;13.40;1.00
38938;DHT22;24727;51.974;20.868;2022-09-03T19:56:10;13.50;1.00
38938;DHT22;24727;51.974;20.868;2022-09-03T19:59:03;13.40;1.00
38938;DHT22;24727;51.974;20.868;2022-09-03T20:01:49;13.40;1.00
38938;DHT22;24727;51.974;20.868;2022-09-03T20:04:38;13.30;1.00
38938;DHT22;24727;51.974;20.868;2022-09-03T20:07:24;13.30;1.00
38938;DHT22;24727;51.974;20.868;2022-09-03T20:10:13;13.20;1.00
38938;DHT22;24727;51.974;20.868;2022-09-03T20:23:44;12.70;1.00
38938;DHT22;24727;51.974;20.868;2022-09-03T20:26:55;12.60;1.00
38938;DHT22;24727;51.974;20.868;2022-09-03T20:37:24;12.50;1.00
38938;DHT22;24727;51.974;20.868;2022-09-03T20:40:19;12.50;1.00
38938;DHT22;24727;51.974;20.868;2022-09-03T20:48:53;12.30;1.00
38938;DHT22;24727;51.974;20.868;2022-09-03T20:51:38;12.30;1.00
38938;DHT22;24727;51.974;20.868;2022-09-03T20:54:17;12.30;1.00
38938;DHT22;24727;51.974;20.868;2022-09-03T21:04:59;11.90;1.00
38938;DHT22;24727;51.974;20.868;2022-09-03T21:07:35;11.90;1.00
38938;DHT22;24727;51.974;20.868;2022-09-03T21:10:07;11.80;1.00
38938;DHT22;24727;51.974;20.868;2022-09-03T21:12:53;11.90;1.00
38938;DHT22;24727;51.974;20.868;2022-09-03T21:18:30;11.80;1.00
38938;DHT22;24727;51.974;20.868;2022-09-03T21:23:47;11.80;1.00
38938;DHT22;24727;51.974;20.868;2022-09-03T21:26:23;11.80;1.00
38938;DHT22;24727;51.974;20.868;2022-09-03T21:29:12;11.60;1.00
38938;DHT22;24727;51.974;20.868;2022-09-03T21:34:36;11.50;1.00
38938;DHT22;24727;51.974;20.868;2022-09-03T21:37:05;11.50;1.00
38938;DHT22;24727;51.974;20.868;2022-09-03T21:39:42;11.50;1.00
38938;DHT22;24727;51.974;20.868;2022-09-03T21:42:17;11.50;1.00
38938;DHT22;24727;51.974;20.868;2022-09-03T21:45:13;11.30;1.00
38938;DHT22;24727;51.974;20.868;2022-09-03T21:48:07;11.30;1.00
38938;DHT22;24727;51.974;20.868;2022-09-03T21:51:16;11.30;1.00
38938;DHT22;24727;51.974;20.868;2022-09-03T21:56:51;11.20;1.00
38938;DHT22;24727;51.974;20.868;2022-09-03T22:04:16;11.10;1.00
38938;DHT22;24727;51.974;20.868;2022-09-03T22:12:35;10.90;1.00
38938;DHT22;24727;51.974;20.868;2022-09-03T22:15:05;10.90;1.00
38938;DHT22;24727;51.974;20.868;2022-09-03T22:18:20;10.90;1.00
38938;DHT22;24727;51.974;20.868;2022-09-03T22:21:08;10.80;1.00
38938;DHT22;24727;51.974;20.868;2022-09-03T22:29:23;10.80;1.00
38938;DHT22;24727;51.974;20.868;2022-09-03T22:37:51;10.70;1.00